createdAt,value
2022-11-05T00:02:25.418Z,66.80
2022-11-05T00:07:50.769Z,81.70
2022-11-05T00:13:21.234Z,77.72
2022-11-05T00:18:24.274Z,73.38
2022-11-05T00:23:46.545Z,86.38
2022-11-05T00:28:49.262Z,82.78
2022-11-05T00:33:52.020Z,77.65
2022-11-05T00:38:56.088Z,92.75
2022-11-05T00:44:16.560Z,89.72
2022-11-05T00:49:31.178Z,88.20
2022-11-05T00:54:35.242Z,82.50
2022-11-05T00:59:37.950Z,93.18
2022-11-05T01:04:40.657Z,91.13
2022-11-05T01:09:44.719Z,91.22
2022-11-05T01:14:47.488Z,92.30
2022-11-05T01:19:51.233Z,58.25
2022-11-05T01:24:55.408Z,29.52
2022-11-05T01:29:58.138Z,18.85
2022-11-05T01:35:00.912Z,20.77
2022-11-05T01:40:05.964Z,23.70
2022-11-05T01:45:14.453Z,19.77
2022-11-05T01:50:28.113Z,28.23
2022-11-05T01:55:36.474Z,18.83
2022-11-05T02:00:41.073Z,19.70
2022-11-05T02:05:44.701Z,14.73
2022-11-05T02:10:49.544Z,18.85
2022-11-05T02:16:02.506Z,15.88
2022-11-05T02:21:27.367Z,10.82
2022-11-05T02:27:01.013Z,13.90
2022-11-05T02:32:09.709Z,10.32
2022-11-05T02:37:18.836Z,10.40
2022-11-05T02:42:31.639Z,13.82
2022-11-05T02:47:43.856Z,10.13
2022-11-05T02:52:54.629Z,11.63
2022-11-05T02:57:59.698Z,7.25
2022-11-05T03:03:05.816Z,11.25
2022-11-05T03:08:16.796Z,12.88
2022-11-05T03:13:27.259Z,10.13
2022-11-05T03:18:40.798Z,7.18
2022-11-05T03:23:48.049Z,10.05
2022-11-05T03:34:03.949Z,15.13
2022-11-05T03:39:09.766Z,15.77
2022-11-05T03:44:16.693Z,21.00
2022-11-05T03:49:26.523Z,22.40
2022-11-05T03:54:29.959Z,25.48
2022-11-05T03:59:39.238Z,32.58
2022-11-05T04:04:43.603Z,34.38
2022-11-05T04:10:03.871Z,39.88
2022-11-05T04:15:07.868Z,41.20
2022-11-05T04:25:57.071Z,61.53
2022-11-05T04:30:59.905Z,60.10
2022-11-05T04:36:04.016Z,60.35
2022-11-05T04:41:14.593Z,60.55
2022-11-05T04:46:17.557Z,57.85
2022-11-05T04:51:22.842Z,52.28
2022-11-05T04:56:26.540Z,52.10
2022-11-05T05:01:29.515Z,60.95
2022-11-05T05:06:33.648Z,53.35
2022-11-05T05:11:36.591Z,53.40
2022-11-05T05:16:39.683Z,57.38
2022-11-05T05:21:43.746Z,57.88
2022-11-05T05:26:49.077Z,48.83
2022-11-05T05:31:51.896Z,56.08
2022-11-05T05:36:55.979Z,57.97
2022-11-05T05:41:58.685Z,59.50
2022-11-05T05:47:01.465Z,61.55
2022-11-05T05:52:06.149Z,51.15
2022-11-05T05:57:08.869Z,57.83
2022-11-05T06:02:12.567Z,53.83
2022-11-05T06:07:16.782Z,51.17
2022-11-05T06:12:19.589Z,47.45
2022-11-05T06:17:22.689Z,47.10
2022-11-05T06:22:26.775Z,43.25
2022-11-05T06:27:29.706Z,46.53
2022-11-05T06:32:32.768Z,57.35
2022-11-05T06:37:36.915Z,73.32
2022-11-05T06:42:42.326Z,64.07
2022-11-05T06:47:45.028Z,56.10
2022-11-05T06:52:55.635Z,58.10
2022-11-05T06:57:58.691Z,58.67
2022-11-05T07:03:05.196Z,55.72
2022-11-05T07:08:09.350Z,58.30
2022-11-05T07:13:13.024Z,55.78
2022-11-05T07:18:16.593Z,57.33
2022-11-05T07:23:20.749Z,64.15
2022-11-05T07:28:23.636Z,53.72
2022-11-05T07:33:26.345Z,55.60
2022-11-05T07:38:30.634Z,69.03
2022-11-05T07:43:33.363Z,55.35
2022-11-05T07:48:37.284Z,54.30
2022-11-05T07:53:45.294Z,53.08
2022-11-05T07:58:48.415Z,59.88
2022-11-05T08:03:51.163Z,58.83
2022-11-05T08:08:55.236Z,66.28
2022-11-05T08:13:57.967Z,53.47
2022-11-05T08:19:00.756Z,49.80
2022-11-05T08:24:05.264Z,89.18
2022-11-05T08:29:07.998Z,53.55
2022-11-05T08:34:10.693Z,50.05
2022-11-05T08:39:17.082Z,62.67
2022-11-05T08:44:19.971Z,51.77
2022-11-05T08:49:22.856Z,47.90
2022-11-05T08:54:27.698Z,38.45
2022-11-05T08:59:31.385Z,22.60
2022-11-05T09:04:34.153Z,36.03
2022-11-05T09:09:38.265Z,27.30
2022-11-05T09:14:41.087Z,16.77
2022-11-05T09:19:43.956Z,23.52
2022-11-05T09:24:48.113Z,21.02
2022-11-05T09:29:50.824Z,22.67
2022-11-05T09:34:54.500Z,13.57
2022-11-05T09:39:58.918Z,15.38
2022-11-05T09:45:04.539Z,10.10
2022-11-05T09:50:10.624Z,17.40
2022-11-05T09:55:24.561Z,15.40
2022-11-05T10:00:27.903Z,28.85
2022-11-05T10:05:33.801Z,15.90
2022-11-05T10:10:43.099Z,20.90
2022-11-05T10:15:54.988Z,17.75
2022-11-05T10:20:58.608Z,16.83
2022-11-05T10:26:05.557Z,19.35
2022-11-05T10:31:11.310Z,21.58
2022-11-05T10:36:29.693Z,15.52
2022-11-05T10:41:45.663Z,14.25
2022-11-05T10:46:59.403Z,17.15
2022-11-05T10:52:13.126Z,19.00
2022-11-05T10:57:31.872Z,12.07
2022-11-05T11:02:36.753Z,12.75
2022-11-05T11:07:39.623Z,11.27
2022-11-05T11:12:44.379Z,14.20
2022-11-05T11:17:47.662Z,11.30
2022-11-05T11:23:05.306Z,14.07
2022-11-05T11:28:18.943Z,14.38
2022-11-05T11:33:28.205Z,14.95
2022-11-05T11:38:32.516Z,10.43
2022-11-05T11:43:39.929Z,8.80
2022-11-05T11:48:43.292Z,14.68
2022-11-05T11:53:49.219Z,12.07
2022-11-05T11:58:54.911Z,12.63
2022-11-05T12:04:04.719Z,13.30
2022-11-05T12:09:18.313Z,11.32
2022-11-05T12:14:40.210Z,8.55
2022-11-05T12:20:12.446Z,6.80
2022-11-05T12:25:22.636Z,9.90
2022-11-05T12:30:27.618Z,12.45
2022-11-05T12:35:57.795Z,8.10
2022-11-05T12:41:20.919Z,11.15
2022-11-05T12:46:35.217Z,11.85
2022-11-05T12:51:50.576Z,10.93
2022-11-05T12:56:57.632Z,13.35
2022-11-05T13:02:08.104Z,16.00
2022-11-05T13:07:15.106Z,12.65
2022-11-05T13:12:22.762Z,10.15
2022-11-05T13:17:30.562Z,14.55
2022-11-05T13:22:40.469Z,11.63
2022-11-05T13:27:54.636Z,19.80
2022-11-05T13:33:02.467Z,12.00
2022-11-05T13:38:27.324Z,11.38
2022-11-05T13:43:57.356Z,12.93
2022-11-05T13:49:17.554Z,12.82
2022-11-05T13:55:00.166Z,16.27
2022-11-05T14:00:11.387Z,13.80
2022-11-05T14:05:26.375Z,23.33
2022-11-05T14:10:35.928Z,8.98
2022-11-05T14:15:38.798Z,14.43
2022-11-05T14:20:59.496Z,14.43
2022-11-05T14:26:15.984Z,24.63
2022-11-05T14:32:09.906Z,32.30
2022-11-05T14:37:23.153Z,46.33
2022-11-05T14:42:28.867Z,14.77
2022-11-05T14:47:34.435Z,11.75
2022-11-05T14:52:41.392Z,37.40
2022-11-05T14:58:06.438Z,20.88
2022-11-05T15:03:32.580Z,11.02
2022-11-05T15:08:56.257Z,10.85
2022-11-05T15:14:05.650Z,9.98
2022-11-05T15:19:18.753Z,11.73
2022-11-05T15:24:23.311Z,12.98
2022-11-05T15:29:30.335Z,16.33
2022-11-05T15:34:35.558Z,45.20
2022-11-05T15:39:43.039Z,84.90
2022-11-05T15:44:47.273Z,24.50
2022-11-05T15:49:52.927Z,10.05
2022-11-05T15:55:18.576Z,15.27
2022-11-05T16:00:24.165Z,11.65
2022-11-05T16:05:29.290Z,22.13
2022-11-05T16:10:35.547Z,6.53
2022-11-05T16:15:38.301Z,31.55
2022-11-05T16:20:41.181Z,18.38
2022-11-05T16:25:47.166Z,14.93
2022-11-05T16:30:55.338Z,22.50
2022-11-05T16:35:58.336Z,17.42
2022-11-05T16:41:02.896Z,15.35
2022-11-05T16:46:05.955Z,11.68
2022-11-05T16:51:10.297Z,15.50
2022-11-05T16:56:18.162Z,15.45
2022-11-05T17:01:23.659Z,14.00
2022-11-05T17:06:26.426Z,12.68
2022-11-05T17:11:30.688Z,10.50
2022-11-05T17:16:33.451Z,27.45
2022-11-05T17:21:36.623Z,14.10
2022-11-05T17:26:40.944Z,13.98
2022-11-05T17:31:43.781Z,13.05
2022-11-05T17:36:49.136Z,12.35
2022-11-05T17:41:55.975Z,22.10
2022-11-05T17:46:58.712Z,39.33
2022-11-05T17:52:01.617Z,12.43
2022-11-05T17:57:07.173Z,15.15
2022-11-05T18:02:12.001Z,14.00
2022-11-05T18:07:15.151Z,10.90
2022-11-05T18:12:19.336Z,16.95
2022-11-05T18:17:22.357Z,17.45
2022-11-05T18:22:26.590Z,15.57
2022-11-05T18:27:30.763Z,18.65
2022-11-05T18:32:34.013Z,14.73
2022-11-05T18:37:38.714Z,20.95
2022-11-05T18:42:43.049Z,18.02
2022-11-05T18:47:45.753Z,17.95
2022-11-05T18:52:48.458Z,12.52
2022-11-05T18:57:53.462Z,16.80
2022-11-05T19:02:56.652Z,13.80
2022-11-05T19:07:59.733Z,13.77
2022-11-05T19:13:03.972Z,12.52
2022-11-05T19:18:06.990Z,18.98
2022-11-05T19:23:10.093Z,21.02
2022-11-05T19:28:14.490Z,15.85
2022-11-05T19:33:17.711Z,17.20
2022-11-05T19:38:20.409Z,16.88
2022-11-05T19:43:24.622Z,18.58
2022-11-05T19:48:29.217Z,24.33
2022-11-05T19:53:31.938Z,21.67
2022-11-05T19:58:36.368Z,15.07
2022-11-05T20:03:40.326Z,17.95
2022-11-05T20:09:07.026Z,23.35
2022-11-05T20:14:10.907Z,41.35
2022-11-05T20:19:16.583Z,24.73
2022-11-05T20:24:25.149Z,27.73
2022-11-05T20:29:35.231Z,19.15
2022-11-05T20:34:39.164Z,26.05
2022-11-05T20:39:42.168Z,22.40
2022-11-05T20:44:46.233Z,29.75
2022-11-05T20:49:48.981Z,20.85
2022-11-05T20:54:51.900Z,22.67
2022-11-05T20:59:56.086Z,16.90
2022-11-05T21:04:58.840Z,22.17
2022-11-05T21:10:02.305Z,25.80
2022-11-05T21:15:08.478Z,18.58
2022-11-05T21:20:11.641Z,21.73
2022-11-05T21:25:17.861Z,21.55
2022-11-05T21:30:22.426Z,18.10
2022-11-05T21:35:25.310Z,21.75
2022-11-05T21:40:34.540Z,28.73
2022-11-05T21:45:40.737Z,21.90
2022-11-05T21:50:57.615Z,24.17
2022-11-05T21:56:26.163Z,28.05
2022-11-05T22:01:31.396Z,33.08
2022-11-05T22:06:34.609Z,31.48
2022-11-05T22:11:37.815Z,37.20
2022-11-05T22:16:41.944Z,78.90
2022-11-05T22:21:45.700Z,55.50
2022-11-05T22:26:48.617Z,47.35
2022-11-05T22:31:52.830Z,30.85
2022-11-05T22:36:55.856Z,30.40
2022-11-05T22:42:02.034Z,43.67
2022-11-05T22:47:09.774Z,76.82
2022-11-05T22:52:13.366Z,35.28
2022-11-05T22:57:16.395Z,22.35
2022-11-05T23:02:20.695Z,21.10
2022-11-05T23:07:41.306Z,22.20
2022-11-05T23:12:44.605Z,22.48
2022-11-05T23:18:06.245Z,27.88
2022-11-05T23:23:37.349Z,27.27
2022-11-05T23:28:40.062Z,32.17
2022-11-05T23:33:46.647Z,23.27
2022-11-05T23:38:49.393Z,34.73
2022-11-05T23:44:09.678Z,28.70
2022-11-05T23:49:14.071Z,21.90
2022-11-05T23:54:16.841Z,30.25
2022-11-05T23:59:19.553Z,30.58
